createdAt,value
2018-04-06T00:00:53.857Z,67.93
2018-04-06T00:03:21.349Z,67.89
2018-04-06T00:05:48.996Z,68.02
2018-04-06T00:08:16.448Z,67.55
2018-04-06T00:10:44.035Z,67.45
2018-04-06T00:13:11.634Z,67.12
2018-04-06T00:15:39.162Z,68.13
2018-04-06T00:18:06.666Z,67.83
2018-04-06T00:20:34.204Z,67.51
2018-04-06T00:23:01.666Z,67.40
2018-04-06T00:25:29.135Z,67.34
2018-04-06T00:27:56.730Z,67.51
2018-04-06T00:30:24.294Z,67.78
2018-04-06T00:35:28.546Z,68.45
2018-04-06T00:37:56.044Z,68.25
2018-04-06T00:40:24.506Z,68.47
2018-04-06T00:42:51.980Z,68.30
2018-04-06T00:45:19.451Z,68.60
2018-04-06T00:47:46.920Z,68.57
2018-04-06T00:50:14.390Z,69.01
2018-04-06T00:52:41.889Z,69.16
2018-04-06T00:55:09.357Z,69.19
2018-04-06T00:57:36.836Z,69.03
2018-04-06T01:00:04.320Z,68.80
2018-04-06T01:02:31.879Z,70.00
2018-04-06T01:04:59.330Z,70.35
2018-04-06T01:07:26.829Z,70.60
2018-04-06T01:09:54.318Z,70.63
2018-04-06T01:12:21.773Z,71.22
2018-04-06T01:14:49.270Z,71.33
2018-04-06T01:17:16.735Z,71.64
2018-04-06T01:19:44.288Z,71.73
2018-04-06T01:22:11.975Z,72.00
2018-04-06T01:24:39.447Z,72.34
2018-04-06T01:27:06.945Z,72.28
2018-04-06T01:29:34.406Z,72.35
2018-04-06T01:32:01.889Z,72.28
2018-04-06T01:34:29.468Z,72.48
2018-04-06T01:36:56.981Z,72.06
2018-04-06T01:39:24.459Z,72.20
2018-04-06T01:41:51.933Z,72.10
2018-04-06T01:44:19.637Z,72.04
2018-04-06T01:46:47.100Z,72.16
2018-04-06T01:49:14.586Z,72.45
2018-04-06T01:51:42.048Z,72.48
2018-04-06T01:54:09.492Z,72.67
2018-04-06T01:56:37.055Z,73.25
2018-04-06T01:59:04.538Z,72.95
2018-04-06T02:01:32.064Z,72.90
2018-04-06T02:03:59.532Z,73.16
2018-04-06T02:06:27.006Z,72.79
2018-04-06T02:08:54.477Z,72.72
2018-04-06T02:11:21.963Z,72.96
2018-04-06T02:13:49.439Z,73.01
2018-04-06T02:16:16.908Z,73.34
2018-04-06T02:18:44.390Z,73.26
2018-04-06T02:21:11.852Z,73.02
2018-04-06T02:23:39.330Z,73.51
2018-04-06T02:26:06.834Z,73.29
2018-04-06T02:28:34.339Z,73.36
2018-04-06T02:31:01.798Z,73.26
2018-04-06T02:33:29.345Z,72.97
2018-04-06T02:35:56.811Z,73.14
2018-04-06T02:38:24.282Z,73.45
2018-04-06T02:40:51.760Z,73.90
2018-04-06T02:43:19.226Z,73.88
2018-04-06T02:45:46.931Z,73.91
2018-04-06T02:48:14.411Z,74.14
2018-04-06T02:50:41.891Z,74.45
2018-04-06T02:53:09.542Z,74.16
2018-04-06T02:55:37.043Z,74.31
2018-04-06T02:58:04.569Z,74.69
2018-04-06T03:00:32.270Z,74.49
2018-04-06T03:02:59.758Z,74.68
2018-04-06T03:05:27.224Z,74.62
2018-04-06T03:07:54.721Z,74.62
2018-04-06T03:10:22.418Z,74.61
2018-04-06T03:12:49.886Z,74.62
2018-04-06T03:15:17.415Z,74.49
2018-04-06T03:17:44.895Z,74.55
2018-04-06T03:20:12.345Z,74.93
2018-04-06T03:22:39.807Z,75.25
2018-04-06T03:25:07.356Z,74.91
2018-04-06T03:27:34.848Z,74.91
2018-04-06T03:30:02.648Z,75.31
2018-04-06T03:32:30.116Z,75.08
2018-04-06T03:34:57.654Z,75.07
2018-04-06T03:37:25.169Z,75.19
2018-04-06T03:39:52.646Z,75.06
2018-04-06T03:42:20.128Z,75.28
2018-04-06T03:44:47.680Z,75.33
2018-04-06T03:47:15.165Z,75.44
2018-04-06T03:49:42.653Z,75.33
2018-04-06T03:52:10.108Z,75.43
2018-04-06T03:54:37.856Z,75.19
2018-04-06T03:57:05.326Z,75.46
2018-04-06T03:59:32.847Z,75.27
2018-04-06T04:02:00.308Z,75.07
2018-04-06T04:04:27.785Z,75.02
2018-04-06T04:06:55.250Z,74.75
2018-04-06T04:09:22.759Z,74.96
2018-04-06T04:11:50.257Z,75.18
2018-04-06T04:14:17.873Z,74.75
2018-04-06T04:16:45.328Z,74.74
2018-04-06T04:19:12.830Z,74.81
2018-04-06T04:21:40.350Z,74.65
2018-04-06T04:24:07.867Z,74.50
2018-04-06T04:26:35.405Z,74.29
2018-04-06T04:29:02.925Z,74.30
2018-04-06T04:31:30.402Z,74.27
2018-04-06T04:33:57.941Z,74.05
2018-04-06T04:36:25.410Z,74.16
2018-04-06T04:38:52.869Z,73.68
2018-04-06T04:41:20.352Z,73.41
2018-04-06T04:43:47.824Z,73.48
2018-04-06T04:46:15.325Z,73.48
2018-04-06T04:48:42.793Z,73.36
2018-04-06T04:51:10.269Z,73.44
2018-04-06T04:53:37.764Z,73.52
2018-04-06T04:56:05.301Z,73.38
2018-04-06T04:58:32.851Z,73.35
2018-04-06T05:01:00.337Z,73.73
2018-04-06T05:03:27.936Z,73.52
2018-04-06T05:05:55.387Z,73.53
2018-04-06T05:08:22.851Z,73.63
2018-04-06T05:10:50.315Z,73.52
2018-04-06T05:13:17.797Z,73.54
2018-04-06T05:15:45.292Z,73.54
2018-04-06T05:18:13.025Z,73.31
2018-04-06T05:20:40.528Z,73.21
2018-04-06T05:23:08.033Z,72.96
2018-04-06T05:25:35.612Z,72.67
2018-04-06T05:28:03.105Z,72.20
2018-04-06T05:30:30.714Z,72.01
2018-04-06T05:32:58.225Z,72.12
2018-04-06T05:35:25.773Z,71.82
2018-04-06T05:37:53.284Z,71.22
2018-04-06T05:40:20.795Z,71.31
2018-04-06T05:42:48.268Z,71.27
2018-04-06T05:45:15.743Z,71.04
2018-04-06T05:47:43.197Z,70.97
2018-04-06T05:50:10.796Z,70.91
2018-04-06T05:52:38.286Z,70.60
2018-04-06T05:55:05.754Z,70.03
2018-04-06T05:57:33.224Z,69.56
2018-04-06T06:00:00.703Z,69.40
2018-04-06T06:02:28.200Z,69.26
2018-04-06T06:04:55.690Z,68.98
2018-04-06T06:07:23.171Z,68.62
2018-04-06T06:09:50.685Z,68.24
2018-04-06T06:12:18.215Z,67.88
2018-04-06T06:14:45.732Z,67.79
2018-04-06T06:17:13.346Z,66.49
2018-04-06T06:19:40.829Z,66.12
2018-04-06T06:22:08.332Z,65.27
2018-04-06T06:24:35.964Z,64.72
2018-04-06T06:27:03.433Z,64.12
2018-04-06T06:29:34.941Z,63.75
2018-04-06T06:32:02.453Z,63.20
2018-04-06T06:34:29.927Z,62.83
2018-04-06T06:36:57.406Z,62.87
2018-04-06T06:39:25.084Z,62.42
2018-04-06T06:41:52.651Z,62.09
2018-04-06T06:44:20.147Z,61.92
2018-04-06T06:46:47.634Z,61.36
2018-04-06T06:49:15.110Z,61.39
2018-04-06T06:51:42.596Z,60.62
2018-04-06T06:54:10.067Z,61.05
2018-04-06T06:56:37.580Z,60.02
2018-04-06T06:59:05.083Z,59.52
2018-04-06T07:01:32.666Z,59.25
2018-04-06T07:04:00.144Z,57.59
2018-04-06T07:06:27.629Z,57.03
2018-04-06T07:08:55.097Z,56.10
2018-04-06T07:11:22.622Z,56.21
2018-04-06T07:13:50.106Z,55.49
2018-04-06T07:16:17.616Z,55.99
2018-04-06T07:18:45.168Z,54.60
2018-04-06T07:21:12.649Z,53.91
2018-04-06T07:23:40.239Z,53.14
2018-04-06T07:26:07.729Z,53.22
2018-04-06T07:28:35.229Z,53.12
2018-04-06T07:31:02.701Z,52.53
2018-04-06T07:33:30.169Z,52.45
2018-04-06T07:35:57.651Z,52.75
2018-04-06T07:38:25.330Z,52.14
2018-04-06T07:40:52.816Z,53.16
2018-04-06T07:43:20.308Z,51.60
2018-04-06T07:45:47.907Z,51.34
2018-04-06T07:48:15.376Z,50.54
2018-04-06T07:50:43.940Z,50.75
2018-04-06T07:53:11.616Z,50.14
2018-04-06T07:55:39.087Z,49.52
2018-04-06T07:58:07.419Z,48.88
2018-04-06T08:00:34.897Z,48.68
2018-04-06T08:03:08.082Z,48.39
2018-04-06T08:05:37.171Z,47.95
2018-04-06T08:08:08.200Z,46.82
2018-04-06T08:10:37.197Z,47.48
2018-04-06T08:13:04.735Z,46.14
2018-04-06T08:15:32.223Z,57.94
2018-04-06T08:17:59.715Z,53.35
2018-04-06T08:20:27.351Z,51.29
2018-04-06T08:22:54.819Z,43.32
2018-04-06T08:25:22.402Z,40.45
2018-04-06T08:27:50.006Z,51.12
2018-04-06T08:30:17.546Z,39.70
2018-04-06T08:32:45.041Z,41.21
2018-04-06T08:35:12.520Z,42.64
2018-04-06T08:37:40.037Z,42.22
2018-04-06T08:40:07.556Z,42.56
2018-04-06T08:42:35.130Z,42.79
2018-04-06T08:45:02.619Z,43.34
2018-04-06T08:47:30.119Z,42.73
2018-04-06T08:49:57.637Z,43.23
2018-04-06T08:52:25.128Z,42.96
2018-04-06T08:54:52.647Z,42.81
2018-04-06T08:57:20.096Z,42.55
2018-04-06T08:59:47.567Z,42.43
2018-04-06T09:02:15.177Z,42.08
2018-04-06T09:04:42.827Z,42.23
2018-04-06T09:07:10.252Z,42.32
2018-04-06T09:09:37.805Z,42.04
2018-04-06T09:12:05.408Z,42.13
2018-04-06T09:14:32.922Z,41.15
2018-04-06T09:17:00.575Z,41.15
2018-04-06T09:19:28.125Z,41.00
2018-04-06T09:21:55.615Z,40.68
2018-04-06T09:24:25.752Z,39.60
2018-04-06T09:26:55.300Z,40.47
2018-04-06T09:29:23.513Z,40.25
2018-04-06T09:31:51.060Z,39.40
2018-04-06T09:34:18.558Z,39.10
2018-04-06T09:36:46.033Z,39.73
2018-04-06T09:39:13.504Z,37.91
2018-04-06T09:41:40.981Z,38.25
2018-04-06T09:44:08.480Z,38.45
2018-04-06T09:46:35.991Z,38.09
2018-04-06T09:49:03.470Z,38.10
2018-04-06T09:51:30.946Z,39.05
2018-04-06T09:53:58.472Z,39.79
2018-04-06T09:56:25.980Z,38.32
2018-04-06T09:58:53.539Z,38.64
2018-04-06T10:01:21.141Z,37.75
2018-04-06T10:03:48.637Z,37.37
2018-04-06T10:06:16.115Z,37.26
2018-04-06T10:08:43.640Z,36.45
2018-04-06T10:11:11.117Z,36.55
2018-04-06T10:13:38.677Z,36.86
2018-04-06T10:16:06.236Z,35.72
2018-04-06T10:18:33.759Z,35.49
2018-04-06T10:21:01.273Z,35.76
2018-04-06T10:23:28.756Z,34.56
2018-04-06T10:25:56.230Z,34.56
2018-04-06T10:28:23.710Z,34.56
2018-04-06T10:30:51.192Z,34.79
2018-04-06T10:33:18.772Z,35.15
2018-04-06T10:35:46.230Z,33.54
2018-04-06T10:38:13.743Z,33.58
2018-04-06T10:40:41.318Z,34.13
2018-04-06T10:43:08.972Z,34.50
2018-04-06T10:45:36.467Z,33.89
2018-04-06T10:48:04.060Z,33.65
2018-04-06T10:50:31.512Z,34.12
2018-04-06T10:52:58.981Z,34.64
2018-04-06T10:55:26.518Z,32.98
2018-04-06T10:57:54.015Z,34.54
2018-04-06T11:00:21.499Z,35.27
2018-04-06T11:02:49.108Z,34.89
2018-04-06T11:05:16.576Z,32.92
2018-04-06T11:07:44.037Z,32.75
2018-04-06T11:10:11.545Z,33.33
2018-04-06T11:12:39.041Z,32.85
2018-04-06T11:15:06.562Z,32.60
2018-04-06T11:17:34.077Z,31.61
2018-04-06T11:20:01.756Z,32.21
2018-04-06T11:22:29.403Z,33.28
2018-04-06T11:24:56.906Z,32.70
2018-04-06T11:27:24.459Z,32.14
2018-04-06T11:29:51.884Z,31.64
2018-04-06T11:32:19.400Z,31.96
2018-04-06T11:34:46.879Z,30.64
2018-04-06T11:37:14.388Z,31.26
2018-04-06T11:39:41.845Z,30.14
2018-04-06T11:42:09.328Z,30.35
2018-04-06T11:44:36.819Z,30.46
2018-04-06T11:47:04.303Z,29.76
2018-04-06T11:49:31.780Z,30.35
2018-04-06T11:51:59.271Z,30.31
2018-04-06T11:54:26.782Z,28.68
2018-04-06T11:56:54.545Z,27.96
2018-04-06T11:59:22.160Z,27.50
2018-04-06T12:01:49.718Z,26.19
2018-04-06T12:04:17.239Z,26.94
2018-04-06T12:06:44.720Z,25.27
2018-04-06T12:09:12.204Z,24.70
2018-04-06T12:11:39.722Z,23.27
2018-04-06T12:14:07.357Z,23.24
2018-04-06T12:16:34.884Z,22.68
2018-04-06T12:19:02.360Z,22.03
2018-04-06T12:21:29.872Z,21.87
2018-04-06T12:23:57.329Z,19.92
2018-04-06T12:26:24.803Z,17.58
2018-04-06T12:28:52.288Z,17.00
2018-04-06T12:31:19.809Z,16.54
2018-04-06T12:33:47.297Z,14.73
2018-04-06T12:36:14.788Z,15.10
2018-04-06T12:38:42.298Z,13.78
2018-04-06T12:41:09.797Z,14.65
2018-04-06T12:43:37.284Z,12.54
2018-04-06T12:46:04.963Z,12.24
2018-04-06T12:48:32.444Z,11.72
2018-04-06T12:51:00.008Z,12.14
2018-04-06T12:53:27.482Z,12.29
2018-04-06T12:55:55.004Z,12.46
2018-04-06T12:58:22.486Z,11.95
2018-04-06T13:00:50.016Z,12.05
2018-04-06T13:03:17.518Z,10.89
2018-04-06T13:05:44.982Z,10.57
2018-04-06T13:08:12.491Z,10.71
2018-04-06T13:10:39.960Z,10.79
2018-04-06T13:13:09.328Z,10.35
2018-04-06T13:15:37.419Z,9.61
2018-04-06T13:18:04.940Z,9.80
2018-04-06T13:20:32.544Z,10.38
2018-04-06T13:23:00.295Z,10.32
2018-04-06T13:25:27.912Z,9.90
2018-04-06T13:27:55.418Z,10.20
2018-04-06T13:30:22.935Z,9.46
2018-04-06T13:32:50.418Z,9.52
2018-04-06T13:35:17.899Z,9.27
2018-04-06T13:37:45.385Z,9.32
2018-04-06T13:40:12.896Z,8.83
2018-04-06T13:42:40.415Z,9.90
2018-04-06T13:45:07.902Z,9.40
2018-04-06T13:47:35.380Z,10.02
2018-04-06T13:50:02.877Z,9.35
2018-04-06T13:52:30.341Z,9.74
2018-04-06T13:54:57.833Z,8.94
2018-04-06T13:57:25.352Z,8.97
2018-04-06T13:59:52.823Z,9.24
2018-04-06T14:02:20.461Z,10.25
2018-04-06T14:04:47.970Z,9.40
2018-04-06T14:07:15.449Z,8.91
2018-04-06T14:09:42.921Z,8.71
2018-04-06T14:12:10.403Z,8.41
2018-04-06T14:14:37.886Z,9.35
2018-04-06T14:17:05.519Z,8.88
2018-04-06T14:19:32.996Z,8.25
2018-04-06T14:22:00.479Z,8.17
2018-04-06T14:24:27.992Z,8.72
2018-04-06T14:26:55.489Z,8.95
2018-04-06T14:29:22.988Z,8.74
2018-04-06T14:31:50.483Z,8.97
2018-04-06T14:34:17.987Z,7.84
2018-04-06T14:36:45.484Z,8.44
2018-04-06T14:39:13.034Z,8.18
2018-04-06T14:41:40.509Z,9.08
2018-04-06T14:44:08.216Z,9.02
2018-04-06T14:46:35.721Z,9.37
2018-04-06T14:49:03.195Z,9.13
2018-04-06T14:51:30.800Z,9.29
2018-04-06T14:53:58.309Z,9.20
2018-04-06T14:56:25.854Z,9.14
2018-04-06T14:58:53.361Z,8.76
2018-04-06T15:01:20.825Z,8.81
2018-04-06T15:03:48.299Z,8.96
2018-04-06T15:06:15.765Z,8.67
2018-04-06T15:08:43.247Z,8.96
2018-04-06T15:11:10.734Z,9.51
2018-04-06T15:13:38.327Z,8.69
2018-04-06T15:16:05.825Z,9.20
2018-04-06T15:18:33.292Z,8.37
2018-04-06T15:21:00.776Z,8.40
2018-04-06T15:23:28.250Z,8.70
2018-04-06T15:25:55.755Z,9.18
2018-04-06T15:28:23.222Z,8.93
2018-04-06T15:30:50.765Z,8.53
2018-04-06T15:33:18.310Z,8.97
2018-04-06T15:35:45.805Z,9.66
2018-04-06T15:38:13.325Z,10.00
2018-04-06T15:40:40.802Z,9.88
2018-04-06T15:43:08.311Z,9.84
2018-04-06T15:45:35.798Z,10.55
2018-04-06T15:48:03.305Z,10.33
2018-04-06T15:50:30.768Z,10.02
2018-04-06T15:52:58.280Z,10.38
2018-04-06T15:55:25.754Z,10.15
2018-04-06T15:57:53.298Z,10.09
2018-04-06T16:00:20.826Z,10.18
2018-04-06T16:02:48.298Z,10.13
2018-04-06T16:05:15.779Z,10.57
2018-04-06T16:07:43.254Z,11.29
2018-04-06T16:10:10.760Z,10.96
2018-04-06T16:12:38.247Z,10.58
2018-04-06T16:15:05.846Z,10.78
2018-04-06T16:17:33.334Z,10.43
2018-04-06T16:20:00.816Z,11.22
2018-04-06T16:22:28.344Z,11.36
2018-04-06T16:24:55.840Z,11.25
2018-04-06T16:27:23.326Z,12.06
2018-04-06T16:29:50.871Z,12.02
2018-04-06T16:32:18.358Z,12.73
2018-04-06T16:34:45.909Z,12.83
2018-04-06T16:37:13.539Z,13.14
2018-04-06T16:39:41.037Z,13.32
2018-04-06T16:42:08.565Z,14.10
2018-04-06T16:44:36.224Z,14.16
2018-04-06T16:47:03.701Z,13.61
2018-04-06T16:49:31.221Z,13.28
2018-04-06T16:51:58.710Z,14.13
2018-04-06T16:54:26.187Z,15.49
2018-04-06T16:56:53.687Z,17.62
2018-04-06T16:59:21.181Z,19.19
2018-04-06T17:01:48.672Z,21.60
2018-04-06T17:04:16.172Z,22.80
2018-04-06T17:06:43.672Z,24.58
2018-04-06T17:09:11.144Z,25.17
2018-04-06T17:11:38.645Z,25.74
2018-04-06T17:14:06.297Z,26.86
2018-04-06T17:16:33.881Z,27.19
2018-04-06T17:19:01.356Z,27.54
2018-04-06T17:21:28.826Z,28.47
2018-04-06T17:23:56.321Z,28.72
2018-04-06T17:26:23.803Z,29.28
2018-04-06T17:28:51.435Z,29.55
2018-04-06T17:31:18.912Z,29.86
2018-04-06T17:33:46.381Z,30.86
2018-04-06T17:36:13.857Z,30.99
2018-04-06T17:38:41.302Z,32.00
2018-04-06T17:41:08.857Z,31.88
2018-04-06T17:43:36.431Z,32.26
2018-04-06T17:46:04.022Z,38.32
2018-04-06T17:48:31.572Z,32.42
2018-04-06T17:50:59.237Z,33.15
2018-04-06T17:53:26.746Z,33.39
2018-04-06T17:55:54.245Z,33.56
2018-04-06T17:58:21.729Z,34.14
2018-04-06T18:00:50.568Z,34.61
2018-04-06T18:03:18.973Z,34.77
2018-04-06T18:05:46.465Z,35.21
2018-04-06T18:08:14.369Z,35.55
2018-04-06T18:10:43.215Z,35.94
2018-04-06T18:13:14.891Z,36.28
2018-04-06T18:15:48.391Z,37.00
2018-04-06T18:18:21.846Z,37.01
2018-04-06T18:20:49.715Z,37.15
2018-04-06T18:23:17.189Z,37.59
2018-04-06T18:25:44.644Z,37.87
2018-04-06T18:28:12.147Z,38.05
2018-04-06T18:30:39.688Z,38.30
2018-04-06T18:33:07.158Z,38.60
2018-04-06T18:35:34.873Z,38.63
2018-04-06T18:38:02.360Z,39.14
2018-04-06T18:40:29.860Z,39.00
2018-04-06T18:42:57.346Z,39.42
2018-04-06T18:45:24.874Z,40.18
2018-04-06T18:47:52.339Z,39.64
2018-04-06T18:50:20.243Z,40.14
2018-04-06T18:52:47.747Z,40.24
2018-04-06T18:55:15.658Z,40.42
2018-04-06T18:57:43.135Z,40.72
2018-04-06T19:00:10.622Z,40.77
2018-04-06T19:02:38.112Z,40.96
2018-04-06T19:05:05.695Z,41.35
2018-04-06T19:07:33.190Z,41.49
2018-04-06T19:10:00.698Z,41.52
2018-04-06T19:12:28.206Z,41.72
2018-04-06T19:14:55.677Z,41.89
2018-04-06T19:17:23.219Z,42.20
2018-04-06T19:19:50.782Z,42.32
2018-04-06T19:22:18.258Z,42.60
2018-04-06T19:24:45.882Z,42.86
2018-04-06T19:27:13.380Z,43.46
2018-04-06T19:29:40.867Z,42.99
2018-04-06T19:32:08.350Z,43.59
2018-04-06T19:34:35.836Z,43.68
2018-04-06T19:37:03.375Z,43.78
2018-04-06T19:39:30.858Z,44.28
2018-04-06T19:42:06.667Z,44.27
2018-04-06T19:44:34.160Z,44.40
2018-04-06T19:47:07.991Z,44.64
2018-04-06T19:49:35.597Z,44.70
2018-04-06T19:52:04.159Z,44.81
2018-04-06T19:54:37.658Z,44.88
2018-04-06T19:57:05.306Z,44.95
2018-04-06T19:59:32.870Z,45.19
2018-04-06T20:02:10.424Z,45.03
2018-04-06T20:07:06.800Z,45.54
2018-04-06T20:09:34.290Z,45.83
2018-04-06T20:12:01.793Z,45.70
2018-04-06T20:14:29.320Z,45.79
2018-04-06T20:16:56.783Z,45.67
2018-04-06T20:19:24.249Z,45.78
2018-04-06T20:21:51.762Z,45.87
2018-04-06T20:24:19.242Z,46.16
2018-04-06T20:26:46.777Z,46.39
2018-04-06T20:29:14.254Z,46.26
2018-04-06T20:37:37.517Z,46.74
2018-04-06T20:40:05.043Z,46.75
2018-04-06T20:42:32.530Z,46.88
2018-04-06T20:45:00.002Z,46.98
2018-04-06T20:47:27.590Z,47.08
2018-04-06T20:49:55.110Z,47.21
2018-04-06T20:52:23.716Z,47.30
2018-04-06T20:54:51.210Z,47.19
2018-04-06T20:57:18.794Z,47.25
2018-04-06T20:59:46.547Z,47.65
2018-04-06T21:02:14.027Z,47.83
2018-04-06T21:04:41.513Z,48.10
2018-04-06T21:07:09.042Z,48.25
2018-04-06T21:09:36.799Z,48.26
2018-04-06T21:12:04.642Z,48.54
2018-04-06T21:14:32.263Z,48.48
2018-04-06T21:16:59.709Z,48.52
2018-04-06T21:19:27.432Z,48.86
2018-04-06T21:21:54.946Z,48.99
2018-04-06T21:24:22.476Z,49.11
2018-04-06T21:26:50.087Z,49.22
2018-04-06T21:29:17.590Z,49.28
2018-04-06T21:31:45.092Z,49.45
2018-04-06T21:34:12.620Z,49.41
2018-04-06T21:36:40.135Z,49.46
2018-04-06T21:39:07.595Z,49.50
2018-04-06T21:41:35.115Z,49.37
2018-04-06T21:44:02.780Z,49.56
2018-04-06T21:46:30.341Z,49.30
2018-04-06T21:48:57.822Z,49.73
2018-04-06T21:51:25.322Z,49.74
2018-04-06T21:53:52.899Z,49.90
2018-04-06T21:56:20.431Z,50.00
2018-04-06T21:58:48.179Z,50.02
2018-04-06T22:01:15.689Z,50.36
2018-04-06T22:03:43.352Z,50.50
2018-04-06T22:06:10.844Z,50.47
2018-04-06T22:08:38.361Z,50.72
2018-04-06T22:11:05.983Z,50.81
2018-04-06T22:13:33.534Z,50.92
2018-04-06T22:16:01.024Z,51.15
2018-04-06T22:18:28.490Z,51.23
2018-04-06T22:20:56.135Z,51.27
2018-04-06T22:23:23.619Z,51.31
2018-04-06T22:25:51.116Z,51.27
2018-04-06T22:28:18.611Z,51.28
2018-04-06T22:30:46.082Z,51.30
2018-04-06T22:33:13.601Z,51.87
2018-04-06T22:35:41.267Z,51.70
2018-04-06T22:38:08.744Z,53.57
2018-04-06T22:40:36.248Z,51.84
2018-04-06T22:43:03.731Z,51.97
2018-04-06T22:45:31.204Z,51.63
2018-04-06T22:47:58.732Z,51.80
2018-04-06T22:50:26.203Z,51.78
2018-04-06T22:52:53.657Z,52.35
2018-04-06T22:55:21.193Z,52.04
2018-04-06T22:57:48.782Z,51.99
2018-04-06T23:00:16.307Z,52.21
2018-04-06T23:02:43.840Z,52.11
2018-04-06T23:05:11.361Z,52.20
2018-04-06T23:07:38.854Z,52.53
2018-04-06T23:10:06.344Z,52.49
2018-04-06T23:12:33.837Z,52.66
2018-04-06T23:15:01.328Z,52.79
2018-04-06T23:17:28.822Z,52.79
2018-04-06T23:19:56.284Z,53.23
2018-04-06T23:22:23.750Z,52.98
2018-04-06T23:24:51.248Z,52.77
2018-04-06T23:27:18.811Z,52.92
2018-04-06T23:29:46.293Z,53.23
2018-04-06T23:32:13.751Z,53.35
2018-04-06T23:34:41.251Z,53.48
2018-04-06T23:37:08.751Z,53.36
2018-04-06T23:39:36.253Z,53.50
2018-04-06T23:42:03.759Z,53.70
2018-04-06T23:44:31.246Z,53.82
2018-04-06T23:46:58.735Z,54.27
2018-04-06T23:49:26.261Z,54.39
2018-04-06T23:51:53.787Z,54.64
2018-04-06T23:54:21.284Z,54.67
2018-04-06T23:56:48.764Z,54.89
2018-04-06T23:59:16.235Z,54.93
